createdAt,value
2023-02-22T00:01:20.330Z,73.06
2023-02-22T00:03:49.581Z,73.03
2023-02-22T00:06:18.420Z,72.75
2023-02-22T00:08:47.948Z,73.02
2023-02-22T00:11:14.743Z,72.78
2023-02-22T00:13:41.485Z,72.96
2023-02-22T00:16:08.263Z,72.99
2023-02-22T00:18:35.008Z,73.11
2023-02-22T00:21:01.897Z,73.06
2023-02-22T00:23:30.243Z,73.01
2023-02-22T00:25:59.906Z,73.29
2023-02-22T00:28:26.482Z,73.17
2023-02-22T00:30:53.078Z,72.96
2023-02-22T00:33:19.857Z,72.87
2023-02-22T00:35:46.568Z,72.92
2023-02-22T00:38:14.882Z,73.19
2023-02-22T00:40:41.682Z,72.54
2023-02-22T00:43:09.596Z,72.73
2023-02-22T00:45:37.170Z,72.45
2023-02-22T00:48:06.079Z,72.43
2023-02-22T00:50:33.211Z,72.30
2023-02-22T00:53:01.130Z,72.65
2023-02-22T00:55:29.916Z,72.50
2023-02-22T00:57:57.236Z,72.19
2023-02-22T01:00:27.669Z,72.11
2023-02-22T01:02:54.343Z,72.07
2023-02-22T01:05:23.315Z,72.01
2023-02-22T01:07:50.312Z,71.98
2023-02-22T01:10:17.884Z,71.54
2023-02-22T01:12:44.610Z,71.65
2023-02-22T01:15:11.416Z,71.76
2023-02-22T01:17:40.052Z,71.78
2023-02-22T01:20:10.414Z,72.16
2023-02-22T01:22:37.068Z,71.82
2023-02-22T01:25:04.367Z,71.71
2023-02-22T01:27:30.941Z,71.86
2023-02-22T01:29:57.932Z,71.96
2023-02-22T01:32:24.476Z,71.74
2023-02-22T01:34:54.614Z,72.05
2023-02-22T01:37:21.233Z,71.82
2023-02-22T01:39:47.778Z,71.83
2023-02-22T01:42:14.327Z,71.54
2023-02-22T01:44:41.072Z,71.96
2023-02-22T01:47:08.275Z,72.03
2023-02-22T01:49:39.445Z,72.34
2023-02-22T01:52:09.955Z,72.08
2023-02-22T01:54:40.628Z,71.91
2023-02-22T01:57:12.263Z,72.09
2023-02-22T01:59:42.932Z,71.80
2023-02-22T02:02:10.215Z,71.77
2023-02-22T02:04:37.412Z,71.50
2023-02-22T02:07:09.134Z,71.80
2023-02-22T02:09:40.118Z,71.21
2023-02-22T02:12:10.246Z,71.14
2023-02-22T02:14:37.064Z,71.78
2023-02-22T02:17:04.682Z,71.63
2023-02-22T02:19:42.299Z,71.57
2023-02-22T02:22:41.888Z,71.78
2023-02-22T02:26:02.011Z,71.85
2023-02-22T02:28:57.191Z,72.08
2023-02-22T02:31:59.764Z,72.06
2023-02-22T02:34:35.821Z,72.25
2023-02-22T02:37:11.768Z,72.21
2023-02-22T02:39:46.877Z,72.71
2023-02-22T02:42:19.541Z,72.53
2023-02-22T02:44:52.197Z,72.46
2023-02-22T02:47:24.330Z,72.60
2023-02-22T02:49:58.352Z,72.56
2023-02-22T02:52:27.231Z,72.23
2023-02-22T02:54:55.714Z,72.83
2023-02-22T02:57:22.283Z,72.57
2023-02-22T02:59:48.865Z,72.22
2023-02-22T03:02:29.011Z,72.27
2023-02-22T03:05:11.113Z,72.29
2023-02-22T03:07:51.408Z,72.26
2023-02-22T03:10:30.774Z,72.59
2023-02-22T03:13:04.112Z,72.50
2023-02-22T03:15:40.155Z,72.60
2023-02-22T03:18:12.925Z,72.66
2023-02-22T03:20:47.150Z,72.52
2023-02-22T03:23:23.885Z,72.24
2023-02-22T03:25:53.733Z,72.22
2023-02-22T03:28:24.726Z,72.30
2023-02-22T03:30:55.334Z,71.89
2023-02-22T03:33:27.536Z,71.65
2023-02-22T03:36:00.077Z,71.43
2023-02-22T03:38:30.299Z,71.27
2023-02-22T03:41:01.279Z,71.20
2023-02-22T03:43:31.843Z,71.34
2023-02-22T03:45:59.539Z,70.96
2023-02-22T03:48:32.889Z,70.96
2023-02-22T03:51:00.863Z,71.01
2023-02-22T03:53:27.675Z,71.33
2023-02-22T03:55:56.924Z,71.08
2023-02-22T03:58:26.751Z,71.00
2023-02-22T04:00:53.468Z,71.05
2023-02-22T04:03:20.957Z,70.37
2023-02-22T04:05:47.754Z,70.56
2023-02-22T04:08:16.925Z,70.73
2023-02-22T04:10:43.560Z,70.47
2023-02-22T04:13:10.279Z,70.48
2023-02-22T04:15:36.968Z,70.61
2023-02-22T04:18:03.898Z,70.73
2023-02-22T04:20:30.466Z,70.71
2023-02-22T04:22:57.038Z,71.04
2023-02-22T04:25:25.082Z,71.09
2023-02-22T04:27:52.096Z,71.44
2023-02-22T04:30:19.601Z,71.76
2023-02-22T04:32:46.487Z,71.70
2023-02-22T04:35:13.189Z,71.81
2023-02-22T04:37:39.798Z,72.24
2023-02-22T04:40:07.774Z,72.46
2023-02-22T04:42:36.694Z,72.55
2023-02-22T04:45:04.874Z,72.27
2023-02-22T04:47:31.304Z,72.89
2023-02-22T04:49:57.923Z,72.29
2023-02-22T04:52:25.091Z,72.62
2023-02-22T04:54:52.382Z,72.72
2023-02-22T04:57:18.912Z,72.86
2023-02-22T04:59:46.889Z,72.88
2023-02-22T05:02:13.463Z,72.94
2023-02-22T05:04:40.080Z,73.23
2023-02-22T05:07:06.719Z,73.78
2023-02-22T05:09:33.273Z,73.75
2023-02-22T05:11:59.879Z,73.87
2023-02-22T05:14:26.461Z,73.67
2023-02-22T05:16:55.544Z,73.75
2023-02-22T05:19:22.511Z,73.88
2023-02-22T05:21:49.369Z,73.89
2023-02-22T05:24:16.096Z,73.91
2023-02-22T05:26:43.847Z,73.57
2023-02-22T05:29:11.302Z,73.58
2023-02-22T05:31:37.852Z,73.74
2023-02-22T05:34:05.927Z,74.02
2023-02-22T05:36:32.461Z,74.26
2023-02-22T05:38:59.056Z,74.39
2023-02-22T05:41:25.780Z,74.42
2023-02-22T05:43:52.340Z,74.54
2023-02-22T05:46:18.863Z,74.42
2023-02-22T05:48:45.438Z,74.25
2023-02-22T05:51:13.497Z,74.39
2023-02-22T05:53:40.149Z,74.67
2023-02-22T05:56:07.050Z,74.63
2023-02-22T05:58:33.734Z,74.49
2023-02-22T06:01:01.605Z,74.52
2023-02-22T06:03:29.540Z,74.85
2023-02-22T06:05:56.222Z,74.77
2023-02-22T06:08:24.178Z,75.35
2023-02-22T06:10:50.744Z,75.91
2023-02-22T06:13:17.490Z,75.52
2023-02-22T06:15:43.942Z,75.31
2023-02-22T06:18:10.504Z,75.03
2023-02-22T06:20:37.089Z,75.19
2023-02-22T06:23:03.698Z,75.03
2023-02-22T06:25:31.923Z,75.11
2023-02-22T06:27:59.028Z,75.08
2023-02-22T06:30:27.753Z,75.45
2023-02-22T06:32:54.461Z,74.71
2023-02-22T06:35:21.241Z,74.99
2023-02-22T06:37:48.084Z,75.24
2023-02-22T06:40:15.987Z,74.91
2023-02-22T06:42:43.834Z,75.60
2023-02-22T06:45:11.311Z,75.12
2023-02-22T06:47:39.380Z,74.95
2023-02-22T06:50:06.323Z,74.53
2023-02-22T06:52:32.910Z,74.42
2023-02-22T06:54:59.955Z,74.13
2023-02-22T06:57:26.639Z,73.70
2023-02-22T06:59:54.600Z,73.61
2023-02-22T07:02:21.195Z,73.52
2023-02-22T07:04:47.825Z,73.59
2023-02-22T07:07:14.517Z,72.90
2023-02-22T07:09:41.566Z,72.56
2023-02-22T07:12:08.244Z,72.31
2023-02-22T07:14:34.806Z,72.00
2023-02-22T07:17:02.723Z,71.45
2023-02-22T07:19:29.292Z,70.56
2023-02-22T07:21:55.831Z,70.13
2023-02-22T07:24:22.831Z,69.76
2023-02-22T07:26:49.385Z,68.80
2023-02-22T07:29:15.938Z,68.39
2023-02-22T07:31:42.548Z,67.54
2023-02-22T07:34:10.471Z,66.86
2023-02-22T07:36:37.046Z,66.65
2023-02-22T07:39:04.144Z,66.45
2023-02-22T07:41:30.725Z,66.23
2023-02-22T07:43:57.457Z,65.60
2023-02-22T07:46:24.034Z,65.57
2023-02-22T07:48:50.596Z,64.69
2023-02-22T07:51:18.852Z,63.96
2023-02-22T07:53:45.652Z,63.85
2023-02-22T07:56:12.322Z,63.53
2023-02-22T07:58:38.899Z,63.34
2023-02-22T08:01:05.560Z,62.19
2023-02-22T08:03:34.689Z,62.15
2023-02-22T08:06:01.349Z,61.88
2023-02-22T08:08:29.457Z,60.73
2023-02-22T08:10:56.351Z,60.50
2023-02-22T08:13:23.458Z,59.65
2023-02-22T08:15:51.522Z,59.64
2023-02-22T08:18:19.815Z,59.36
2023-02-22T08:20:48.517Z,58.69
2023-02-22T08:23:16.700Z,57.65
2023-02-22T08:25:44.804Z,57.21
2023-02-22T08:28:12.863Z,56.54
2023-02-22T08:30:40.871Z,56.27
2023-02-22T08:33:07.646Z,55.93
2023-02-22T08:35:34.310Z,54.98
2023-02-22T08:38:03.388Z,54.91
2023-02-22T08:40:31.935Z,53.76
2023-02-22T08:43:00.357Z,53.09
2023-02-22T08:45:27.502Z,53.32
2023-02-22T08:47:54.879Z,53.40
2023-02-22T08:50:23.285Z,52.41
2023-02-22T08:52:50.576Z,52.87
2023-02-22T08:55:19.831Z,52.92
2023-02-22T08:57:46.696Z,53.09
2023-02-22T09:00:16.514Z,53.23
2023-02-22T09:02:43.722Z,52.24
2023-02-22T09:05:10.369Z,51.36
2023-02-22T09:07:37.154Z,51.54
2023-02-22T09:10:04.183Z,51.99
2023-02-22T09:12:30.955Z,51.11
2023-02-22T09:14:57.695Z,50.99
2023-02-22T09:17:25.671Z,50.02
2023-02-22T09:19:52.258Z,50.18
2023-02-22T09:22:18.924Z,50.27
2023-02-22T09:24:45.707Z,50.59
2023-02-22T09:27:12.280Z,50.64
2023-02-22T09:29:38.837Z,50.44
2023-02-22T09:32:05.740Z,50.71
2023-02-22T09:34:33.825Z,50.06
2023-02-22T09:37:00.814Z,49.20
2023-02-22T09:39:27.576Z,50.09
2023-02-22T09:41:59.221Z,49.18
2023-02-22T09:44:34.390Z,48.77
2023-02-22T09:47:01.109Z,48.12
2023-02-22T09:49:32.511Z,48.48
2023-02-22T09:52:04.542Z,48.22
2023-02-22T09:54:34.430Z,48.26
2023-02-22T09:57:04.337Z,47.88
2023-02-22T09:59:37.103Z,47.59
2023-02-22T10:02:18.276Z,46.93
2023-02-22T10:04:52.194Z,47.78
2023-02-22T10:07:26.157Z,47.74
2023-02-22T10:09:54.602Z,47.93
2023-02-22T10:12:29.139Z,47.70
2023-02-22T10:15:18.436Z,48.42
2023-02-22T10:17:52.910Z,48.08
2023-02-22T10:20:35.512Z,48.40
2023-02-22T10:23:15.646Z,48.61
2023-02-22T10:25:44.127Z,47.98
2023-02-22T10:28:15.998Z,46.85
2023-02-22T10:30:45.825Z,47.22
2023-02-22T10:33:17.344Z,46.78
2023-02-22T10:35:52.004Z,47.06
2023-02-22T10:38:22.229Z,46.30
2023-02-22T10:40:52.961Z,47.21
2023-02-22T10:43:19.637Z,47.36
2023-02-22T10:45:46.534Z,47.63
2023-02-22T10:48:17.629Z,46.56
2023-02-22T10:50:47.149Z,46.44
2023-02-22T10:53:14.682Z,45.88
2023-02-22T10:56:18.207Z,45.93
2023-02-22T10:58:49.262Z,45.57
2023-02-22T11:01:27.843Z,45.77
2023-02-22T11:04:00.595Z,45.73
2023-02-22T11:06:27.894Z,45.81
2023-02-22T11:09:05.572Z,45.50
2023-02-22T11:11:33.504Z,45.88
2023-02-22T11:14:00.156Z,45.62
2023-02-22T11:16:31.741Z,45.69
2023-02-22T11:19:03.775Z,44.52
2023-02-22T11:21:31.683Z,44.25
2023-02-22T11:24:03.512Z,44.30
2023-02-22T11:26:40.721Z,44.51
2023-02-22T11:29:20.265Z,43.98
2023-02-22T11:31:47.796Z,44.44
2023-02-22T11:34:30.361Z,44.14
2023-02-22T11:37:14.576Z,43.84
2023-02-22T11:39:41.260Z,44.25
2023-02-22T11:42:21.342Z,43.60
2023-02-22T11:44:47.945Z,43.83
2023-02-22T11:47:14.567Z,43.71
2023-02-22T11:49:44.043Z,44.02
2023-02-22T11:52:21.438Z,44.17
2023-02-22T11:55:08.867Z,43.64
2023-02-22T11:57:50.506Z,43.59
2023-02-22T12:00:26.508Z,42.92
2023-02-22T12:03:17.936Z,42.47
2023-02-22T12:05:56.843Z,42.56
2023-02-22T12:08:32.732Z,42.02
2023-02-22T12:11:07.562Z,41.36
2023-02-22T12:13:47.709Z,41.39
2023-02-22T12:16:23.660Z,40.97
2023-02-22T12:19:08.141Z,41.29
2023-02-22T12:21:38.575Z,41.13
2023-02-22T12:24:09.063Z,40.71
2023-02-22T12:26:39.219Z,41.49
2023-02-22T12:29:14.273Z,40.36
2023-02-22T12:31:46.482Z,41.30
2023-02-22T12:34:23.725Z,41.03
2023-02-22T12:36:55.128Z,40.48
2023-02-22T12:39:40.912Z,41.66
2023-02-22T12:42:16.841Z,41.55
2023-02-22T12:44:52.114Z,41.49
2023-02-22T12:47:23.443Z,41.75
2023-02-22T12:49:56.024Z,41.04
2023-02-22T12:52:34.816Z,40.51
2023-02-22T12:55:09.189Z,40.85
2023-02-22T12:57:42.494Z,40.81
2023-02-22T13:00:18.852Z,41.08
2023-02-22T13:02:54.823Z,41.56
2023-02-22T13:05:21.469Z,40.26
2023-02-22T13:07:58.654Z,40.12
2023-02-22T13:10:40.434Z,39.04
2023-02-22T13:13:18.613Z,39.11
2023-02-22T13:15:58.022Z,39.07
2023-02-22T13:18:32.923Z,38.36
2023-02-22T13:21:05.676Z,38.45
2023-02-22T13:23:39.711Z,38.10
2023-02-22T13:26:12.445Z,38.31
2023-02-22T13:28:42.764Z,38.62
2023-02-22T13:31:37.193Z,38.21
2023-02-22T13:34:15.970Z,38.87
2023-02-22T13:37:00.576Z,39.30
2023-02-22T13:39:50.708Z,39.03
2023-02-22T13:42:45.787Z,38.27
2023-02-22T13:45:47.195Z,38.61
2023-02-22T13:48:32.075Z,38.70
2023-02-22T13:51:17.991Z,38.56
2023-02-22T13:53:50.664Z,38.63
2023-02-22T13:56:19.531Z,37.46
2023-02-22T13:58:51.387Z,37.76
2023-02-22T14:01:43.212Z,38.42
2023-02-22T14:04:23.710Z,38.85
2023-02-22T14:06:50.730Z,38.59
2023-02-22T14:09:38.804Z,38.19
2023-02-22T14:12:07.049Z,38.84
2023-02-22T14:14:33.594Z,38.56
2023-02-22T14:17:20.534Z,38.66
2023-02-22T14:20:20.980Z,38.93
2023-02-22T14:22:49.539Z,38.82
2023-02-22T14:25:35.956Z,39.05
2023-02-22T14:28:05.642Z,38.87
2023-02-22T14:30:34.704Z,38.65
2023-02-22T14:33:01.770Z,38.65
2023-02-22T14:35:48.238Z,38.71
2023-02-22T14:38:19.562Z,38.92
2023-02-22T14:40:51.199Z,39.58
2023-02-22T14:43:22.583Z,39.61
2023-02-22T14:45:52.768Z,39.59
2023-02-22T14:48:27.047Z,40.31
2023-02-22T14:50:57.341Z,40.86
2023-02-22T14:53:27.220Z,40.20
2023-02-22T14:55:58.291Z,40.29
2023-02-22T14:58:32.624Z,40.78
2023-02-22T15:00:59.185Z,40.88
2023-02-22T15:03:29.388Z,41.33
2023-02-22T15:05:56.007Z,41.16
2023-02-22T15:08:22.628Z,41.44
2023-02-22T15:10:51.456Z,41.65
2023-02-22T15:13:20.434Z,41.84
2023-02-22T15:15:54.192Z,42.16
2023-02-22T15:18:24.308Z,41.97
2023-02-22T15:20:53.864Z,41.77
2023-02-22T15:23:20.785Z,41.96
2023-02-22T15:25:49.512Z,42.03
2023-02-22T15:28:18.265Z,42.09
2023-02-22T15:30:45.132Z,42.82
2023-02-22T15:33:16.783Z,42.88
2023-02-22T15:35:44.639Z,43.52
2023-02-22T15:38:27.028Z,43.45
2023-02-22T15:41:01.700Z,43.60
2023-02-22T15:43:28.345Z,43.52
2023-02-22T15:45:55.705Z,43.94
2023-02-22T15:48:24.016Z,44.33
2023-02-22T15:51:07.229Z,45.29
2023-02-22T15:53:40.222Z,45.53
2023-02-22T15:56:12.058Z,46.51
2023-02-22T15:58:39.079Z,46.59
2023-02-22T16:01:08.751Z,47.68
2023-02-22T16:03:39.333Z,47.53
2023-02-22T16:06:10.424Z,47.60
2023-02-22T16:08:53.982Z,48.54
2023-02-22T16:11:24.981Z,48.77
2023-02-22T16:13:53.506Z,49.45
2023-02-22T16:16:28.457Z,49.53
2023-02-22T16:19:28.166Z,49.87
2023-02-22T16:21:57.279Z,50.44
2023-02-22T16:24:28.464Z,50.88
2023-02-22T16:27:15.278Z,50.50
2023-02-22T16:29:42.326Z,50.80
2023-02-22T16:32:09.105Z,51.07
2023-02-22T16:34:37.346Z,51.02
2023-02-22T16:37:03.993Z,50.99
2023-02-22T16:39:32.489Z,51.47
2023-02-22T16:42:01.728Z,51.81
2023-02-22T16:44:29.026Z,51.39
2023-02-22T16:46:57.676Z,51.55
2023-02-22T16:49:24.607Z,52.04
2023-02-22T16:51:55.264Z,51.70
2023-02-22T16:54:26.077Z,52.67
2023-02-22T16:56:55.030Z,52.69
2023-02-22T16:59:21.823Z,53.44
2023-02-22T17:01:48.770Z,53.62
2023-02-22T17:04:17.012Z,53.94
2023-02-22T17:06:43.820Z,54.23
2023-02-22T17:09:11.876Z,54.58
2023-02-22T17:11:40.596Z,54.70
2023-02-22T17:14:16.183Z,54.93
2023-02-22T17:16:43.096Z,55.29
2023-02-22T17:19:15.069Z,55.30
2023-02-22T17:21:41.692Z,55.48
2023-02-22T17:24:11.678Z,54.93
2023-02-22T17:26:51.667Z,55.26
2023-02-22T17:29:18.456Z,55.42
2023-02-22T17:31:45.683Z,56.34
2023-02-22T17:34:12.425Z,55.92
2023-02-22T17:36:39.111Z,55.97
2023-02-22T17:39:06.094Z,55.87
2023-02-22T17:41:40.060Z,56.24
2023-02-22T17:44:07.818Z,56.31
2023-02-22T17:46:35.835Z,56.26
2023-02-22T17:49:02.696Z,56.47
2023-02-22T17:51:29.493Z,56.20
2023-02-22T17:53:56.343Z,56.35
2023-02-22T17:56:23.014Z,56.30
2023-02-22T17:58:54.255Z,56.62
2023-02-22T18:01:23.611Z,57.12
2023-02-22T18:03:50.889Z,56.86
2023-02-22T18:06:19.490Z,57.50
2023-02-22T18:08:46.801Z,57.56
2023-02-22T18:11:13.446Z,57.38
2023-02-22T18:13:40.670Z,58.00
2023-02-22T18:16:08.926Z,57.67
2023-02-22T18:18:35.509Z,57.79
2023-02-22T18:21:02.983Z,57.43
2023-02-22T18:23:31.887Z,57.79
2023-02-22T18:26:10.781Z,58.16
2023-02-22T18:28:37.716Z,57.76
2023-02-22T18:31:08.913Z,58.06
2023-02-22T18:33:35.612Z,57.82
2023-02-22T18:36:02.208Z,58.12
2023-02-22T18:38:29.061Z,57.71
2023-02-22T18:40:59.711Z,58.43
2023-02-22T18:43:34.366Z,57.83
2023-02-22T18:46:10.613Z,57.70
2023-02-22T18:48:37.780Z,58.12
2023-02-22T18:51:09.375Z,57.90
2023-02-22T18:53:36.520Z,58.01
2023-02-22T18:56:07.851Z,57.67
2023-02-22T18:58:35.382Z,57.89
2023-02-22T19:01:03.836Z,58.36
2023-02-22T19:03:32.779Z,58.71
2023-02-22T19:06:01.738Z,60.15
2023-02-22T19:08:28.373Z,60.46
2023-02-22T19:10:54.982Z,60.99
2023-02-22T19:13:21.702Z,61.04
2023-02-22T19:15:48.370Z,60.83
2023-02-22T19:18:15.148Z,61.17
2023-02-22T19:20:43.239Z,60.96
2023-02-22T19:23:09.877Z,61.14
2023-02-22T19:25:38.627Z,61.05
2023-02-22T19:28:05.356Z,61.30
2023-02-22T19:30:32.028Z,61.61
2023-02-22T19:32:58.665Z,61.49
2023-02-22T19:35:25.299Z,61.87
2023-02-22T19:37:54.490Z,62.30
2023-02-22T19:40:21.945Z,62.26
2023-02-22T19:42:48.957Z,63.06
2023-02-22T19:45:15.725Z,62.96
2023-02-22T19:47:42.343Z,63.07
2023-02-22T19:50:09.342Z,63.38
2023-02-22T19:52:36.013Z,63.93
2023-02-22T19:55:04.172Z,64.27
2023-02-22T19:57:30.977Z,64.03
2023-02-22T19:59:57.574Z,64.22
2023-02-22T20:02:24.106Z,64.13
2023-02-22T20:04:50.710Z,64.18
2023-02-22T20:07:17.311Z,64.17
2023-02-22T20:09:43.877Z,64.20
2023-02-22T20:12:11.841Z,64.41
2023-02-22T20:14:38.436Z,64.70
2023-02-22T20:17:05.069Z,64.36
2023-02-22T20:19:31.655Z,64.78
2023-02-22T20:21:58.643Z,64.68
2023-02-22T20:24:25.565Z,64.81
2023-02-22T20:26:52.288Z,64.74
2023-02-22T20:29:20.239Z,64.97
2023-02-22T20:31:47.014Z,65.35
2023-02-22T20:34:13.613Z,64.94
2023-02-22T20:36:41.740Z,64.92
2023-02-22T20:39:12.536Z,65.18
2023-02-22T20:41:40.080Z,65.16
2023-02-22T20:44:07.331Z,65.16
2023-02-22T20:46:35.421Z,65.34
2023-02-22T20:49:04.159Z,65.01
2023-02-22T20:51:30.922Z,65.53
2023-02-22T20:53:58.046Z,65.56
2023-02-22T20:56:24.668Z,65.39
2023-02-22T20:58:55.362Z,65.75
2023-02-22T21:01:22.242Z,65.63
2023-02-22T21:03:51.715Z,65.62
2023-02-22T21:06:21.085Z,65.48
2023-02-22T21:08:51.233Z,65.61
2023-02-22T21:11:18.697Z,65.30
2023-02-22T21:13:45.377Z,65.45
2023-02-22T21:16:17.561Z,66.13
2023-02-22T21:18:44.388Z,66.01
2023-02-22T21:21:12.660Z,65.53
2023-02-22T21:23:40.497Z,65.55
2023-02-22T21:26:12.569Z,65.71
2023-02-22T21:28:53.891Z,65.69
2023-02-22T21:31:23.068Z,65.78
2023-02-22T21:33:50.876Z,65.82
2023-02-22T21:36:20.341Z,66.25
2023-02-22T21:38:48.514Z,66.17
2023-02-22T21:41:16.681Z,66.08
2023-02-22T21:43:44.085Z,66.04
2023-02-22T21:46:10.965Z,66.54
2023-02-22T21:48:38.358Z,66.46
2023-02-22T21:51:08.883Z,66.84
2023-02-22T21:53:36.886Z,67.33
2023-02-22T21:56:04.343Z,67.10
2023-02-22T21:58:31.041Z,67.12
2023-02-22T22:01:04.326Z,66.86
2023-02-22T22:03:30.935Z,66.78
2023-02-22T22:05:59.018Z,67.05
2023-02-22T22:08:26.147Z,66.73
2023-02-22T22:10:55.059Z,66.82
2023-02-22T22:13:22.132Z,66.50
2023-02-22T22:15:49.200Z,66.91
2023-02-22T22:18:15.903Z,66.94
2023-02-22T22:20:42.449Z,67.03
2023-02-22T22:23:09.031Z,67.42
2023-02-22T22:25:35.603Z,67.44
2023-02-22T22:28:04.259Z,67.27
2023-02-22T22:30:30.926Z,67.67
2023-02-22T22:32:57.551Z,67.34
2023-02-22T22:35:24.275Z,67.33
2023-02-22T22:37:50.942Z,67.41
2023-02-22T22:40:18.281Z,67.67
2023-02-22T22:42:45.938Z,67.16
2023-02-22T22:45:13.958Z,67.10
2023-02-22T22:47:40.990Z,67.28
2023-02-22T22:50:08.718Z,67.55
2023-02-22T22:52:35.331Z,67.60
2023-02-22T22:55:02.049Z,67.49
2023-02-22T22:57:28.621Z,67.99
2023-02-22T22:59:55.166Z,67.68
2023-02-22T23:02:23.318Z,67.56
2023-02-22T23:04:49.943Z,67.85
2023-02-22T23:07:16.494Z,67.50
2023-02-22T23:09:43.433Z,68.02
2023-02-22T23:12:10.320Z,67.61
2023-02-22T23:14:39.210Z,67.60
2023-02-22T23:17:06.803Z,67.77
2023-02-22T23:19:36.677Z,67.88
2023-02-22T23:22:04.469Z,67.99
2023-02-22T23:24:32.082Z,67.98
2023-02-22T23:26:58.851Z,67.81
2023-02-22T23:29:26.627Z,68.16
2023-02-22T23:31:53.258Z,68.20
2023-02-22T23:34:22.052Z,67.65
2023-02-22T23:36:50.419Z,67.92
2023-02-22T23:39:18.978Z,68.13
2023-02-22T23:41:45.558Z,68.07
2023-02-22T23:44:12.352Z,67.73
2023-02-22T23:46:38.959Z,68.11
2023-02-22T23:49:05.535Z,68.19
2023-02-22T23:51:32.209Z,68.28
2023-02-22T23:54:00.108Z,68.31
2023-02-22T23:56:27.776Z,68.18
2023-02-22T23:58:54.963Z,68.37
